createdAt,value
2018-09-05T00:01:21.923Z,21.33
2018-09-05T00:03:50.490Z,17.63
2018-09-05T00:06:18.687Z,20.30
2018-09-05T00:08:46.888Z,19.33
2018-09-05T00:11:15.091Z,19.47
2018-09-05T00:13:43.322Z,18.50
2018-09-05T00:16:11.511Z,17.73
2018-09-05T00:18:39.679Z,17.97
2018-09-05T00:21:07.871Z,18.63
2018-09-05T00:23:36.108Z,18.87
2018-09-05T00:26:04.789Z,18.03
2018-09-05T00:28:33.043Z,19.13
2018-09-05T00:31:01.266Z,18.00
2018-09-05T00:33:29.515Z,18.43
2018-09-05T00:35:57.711Z,19.43
2018-09-05T00:38:26.267Z,18.77
2018-09-05T00:40:54.527Z,19.17
2018-09-05T00:43:22.795Z,19.90
2018-09-05T00:45:50.968Z,19.87
2018-09-05T00:48:19.207Z,19.03
2018-09-05T00:50:47.463Z,20.00
2018-09-05T00:53:15.711Z,19.80
2018-09-05T00:55:43.971Z,18.63
2018-09-05T00:58:12.167Z,17.93
2018-09-05T01:00:40.382Z,17.43
2018-09-05T01:03:08.615Z,18.00
2018-09-05T01:05:36.855Z,19.23
2018-09-05T01:08:05.511Z,18.97
2018-09-05T01:10:33.732Z,19.43
2018-09-05T01:13:01.925Z,17.77
2018-09-05T01:15:30.133Z,18.37
2018-09-05T01:17:58.395Z,16.90
2018-09-05T01:20:26.587Z,17.03
2018-09-05T01:22:54.806Z,17.40
2018-09-05T01:25:23.046Z,16.53
2018-09-05T01:27:51.515Z,16.43
2018-09-05T01:30:19.881Z,19.00
2018-09-05T01:32:48.079Z,16.87
2018-09-05T01:35:16.263Z,17.17
2018-09-05T01:37:44.518Z,18.57
2018-09-05T01:40:12.756Z,18.30
2018-09-05T01:42:41.021Z,16.90
2018-09-05T01:45:09.227Z,17.73
2018-09-05T01:47:37.412Z,18.20
2018-09-05T01:50:05.604Z,18.20
2018-09-05T01:52:33.794Z,17.33
2018-09-05T01:55:01.999Z,17.63
2018-09-05T01:57:30.203Z,17.73
2018-09-05T01:59:58.523Z,17.00
2018-09-05T02:02:26.715Z,16.10
2018-09-05T02:04:55.600Z,17.57
2018-09-05T02:07:23.838Z,17.23
2018-09-05T02:09:52.015Z,16.47
2018-09-05T02:12:20.493Z,16.47
2018-09-05T02:14:48.704Z,17.20
2018-09-05T02:17:16.906Z,17.23
2018-09-05T02:19:45.143Z,16.13
2018-09-05T02:22:13.511Z,15.77
2018-09-05T02:24:42.015Z,16.77
2018-09-05T02:27:10.188Z,15.50
2018-09-05T02:29:38.425Z,15.47
2018-09-05T02:32:06.670Z,17.60
2018-09-05T02:34:34.886Z,16.83
2018-09-05T02:37:03.074Z,17.43
2018-09-05T02:39:31.310Z,17.50
2018-09-05T02:41:59.524Z,16.63
2018-09-05T02:44:27.731Z,15.70
2018-09-05T02:46:55.920Z,17.87
2018-09-05T02:49:24.174Z,16.73
2018-09-05T02:51:52.390Z,16.67
2018-09-05T02:54:20.574Z,16.23
2018-09-05T02:56:48.884Z,16.70
2018-09-05T02:59:17.088Z,15.60
2018-09-05T03:01:45.291Z,16.27
2018-09-05T03:04:13.480Z,16.37
2018-09-05T03:06:41.682Z,15.67
2018-09-05T03:09:09.892Z,15.90
2018-09-05T03:11:38.215Z,16.17
2018-09-05T03:14:06.431Z,15.23
2018-09-05T03:16:34.667Z,14.93
2018-09-05T03:19:04.108Z,16.00
2018-09-05T03:21:31.058Z,16.00
2018-09-05T03:23:59.258Z,16.03
2018-09-05T03:26:27.534Z,15.67
2018-09-05T03:28:55.767Z,15.30
2018-09-05T03:31:23.999Z,14.90
2018-09-05T03:33:52.287Z,14.20
2018-09-05T03:36:20.559Z,13.87
2018-09-05T03:38:48.755Z,14.23
2018-09-05T03:41:16.958Z,13.17
2018-09-05T03:43:45.143Z,14.47
2018-09-05T03:46:13.386Z,13.43
2018-09-05T03:48:41.592Z,14.00
2018-09-05T03:51:09.819Z,13.73
2018-09-05T03:53:38.055Z,13.83
2018-09-05T03:56:06.260Z,13.47
2018-09-05T03:58:34.523Z,12.67
2018-09-05T04:01:02.731Z,13.20
2018-09-05T04:03:30.981Z,13.50
2018-09-05T04:05:59.162Z,12.77
2018-09-05T04:08:27.433Z,13.17
2018-09-05T04:10:55.651Z,13.90
2018-09-05T04:13:23.936Z,13.53
2018-09-05T04:15:52.140Z,13.83
2018-09-05T04:18:20.314Z,13.97
2018-09-05T04:20:48.522Z,14.40
2018-09-05T04:23:16.782Z,15.17
2018-09-05T04:25:44.995Z,14.73
2018-09-05T04:28:13.233Z,14.13
2018-09-05T04:30:41.482Z,15.87
2018-09-05T04:33:09.719Z,13.77
2018-09-05T04:35:38.043Z,15.30
2018-09-05T04:38:06.247Z,15.30
2018-09-05T04:40:34.617Z,15.00
2018-09-05T04:43:02.786Z,17.27
2018-09-05T04:45:31.031Z,16.63
2018-09-05T04:47:59.266Z,15.57
2018-09-05T04:50:27.478Z,16.30
2018-09-05T04:52:55.668Z,16.00
2018-09-05T04:55:23.859Z,16.73
2018-09-05T04:57:52.092Z,16.50
2018-09-05T05:00:20.291Z,16.27
2018-09-05T05:02:48.499Z,17.10
2018-09-05T05:05:16.666Z,17.40
2018-09-05T05:07:44.951Z,17.77
2018-09-05T05:10:13.163Z,17.40
2018-09-05T05:12:41.443Z,16.67
2018-09-05T05:15:09.615Z,18.50
2018-09-05T05:17:37.824Z,16.97
2018-09-05T05:20:06.030Z,16.57
2018-09-05T05:22:34.244Z,17.90
2018-09-05T05:25:02.567Z,18.27
2018-09-05T05:27:30.831Z,18.10
2018-09-05T05:29:59.104Z,19.57
2018-09-05T05:32:27.356Z,17.83
2018-09-05T05:34:55.737Z,17.77
2018-09-05T05:37:24.105Z,17.80
2018-09-05T05:39:52.302Z,18.17
2018-09-05T05:42:20.603Z,18.00
2018-09-05T05:44:48.784Z,17.30
2018-09-05T05:47:16.979Z,17.57
2018-09-05T05:49:45.247Z,17.40
2018-09-05T05:52:13.439Z,17.63
2018-09-05T05:54:41.616Z,17.47
2018-09-05T05:57:09.815Z,18.67
2018-09-05T05:59:38.176Z,17.23
2018-09-05T06:02:06.527Z,18.70
2018-09-05T06:04:34.980Z,18.37
2018-09-05T06:07:03.198Z,19.07
2018-09-05T06:09:31.418Z,18.97
2018-09-05T06:11:59.773Z,17.40
2018-09-05T06:14:28.027Z,18.67
2018-09-05T06:16:56.274Z,19.23
2018-09-05T06:19:24.458Z,18.73
2018-09-05T06:21:52.734Z,19.47
2018-09-05T06:24:20.947Z,18.93
2018-09-05T06:26:49.163Z,20.57
2018-09-05T06:29:18.079Z,20.37
2018-09-05T06:31:46.286Z,20.80
2018-09-05T06:34:14.522Z,20.33
2018-09-05T06:36:42.658Z,19.17
2018-09-05T06:39:11.306Z,19.03
2018-09-05T06:41:39.488Z,19.03
2018-09-05T06:44:08.150Z,20.37
2018-09-05T06:46:36.404Z,18.93
2018-09-05T06:49:04.623Z,20.80
2018-09-05T06:51:32.923Z,23.40
2018-09-05T06:54:01.152Z,19.13
2018-09-05T06:56:29.374Z,17.10
2018-09-05T06:58:57.546Z,16.23
2018-09-05T07:01:25.752Z,15.73
2018-09-05T07:03:54.021Z,15.87
2018-09-05T07:06:22.235Z,15.10
2018-09-05T07:08:50.431Z,14.47
2018-09-05T07:11:18.607Z,15.60
2018-09-05T07:13:46.851Z,15.67
2018-09-05T07:16:15.079Z,15.23
2018-09-05T07:18:43.316Z,15.70
2018-09-05T07:21:11.557Z,16.10
2018-09-05T07:23:39.710Z,16.00
2018-09-05T07:26:07.929Z,16.23
2018-09-05T07:28:36.157Z,15.97
2018-09-05T07:31:04.563Z,15.07
2018-09-05T07:33:32.743Z,15.93
2018-09-05T07:36:00.933Z,15.70
2018-09-05T07:38:29.139Z,17.50
2018-09-05T07:40:57.355Z,16.80
2018-09-05T07:43:25.671Z,17.63
2018-09-05T07:45:53.884Z,18.10
2018-09-05T07:48:22.132Z,18.53
2018-09-05T07:50:50.361Z,18.93
2018-09-05T07:53:18.534Z,21.67
2018-09-05T07:55:46.738Z,21.20
2018-09-05T07:58:14.906Z,20.60
2018-09-05T08:00:43.091Z,23.43
2018-09-05T08:03:11.263Z,23.17
2018-09-05T08:05:39.548Z,24.80
2018-09-05T08:08:07.791Z,22.97
2018-09-05T08:10:36.059Z,23.33
2018-09-05T08:13:04.272Z,24.80
2018-09-05T08:15:32.497Z,25.43
2018-09-05T08:18:00.717Z,24.77
2018-09-05T08:20:29.031Z,25.23
2018-09-05T08:22:57.278Z,27.23
2018-09-05T08:25:25.490Z,28.37
2018-09-05T08:27:53.727Z,27.03
2018-09-05T08:30:21.923Z,25.60
2018-09-05T08:32:50.135Z,26.47
2018-09-05T08:35:18.606Z,27.57
2018-09-05T08:37:46.618Z,26.43
2018-09-05T08:40:14.800Z,27.93
2018-09-05T08:42:43.035Z,29.47
2018-09-05T08:45:11.343Z,28.03
2018-09-05T08:47:39.510Z,26.93
2018-09-05T08:50:07.641Z,28.50
2018-09-05T08:52:35.839Z,29.93
2018-09-05T08:55:04.543Z,27.17
2018-09-05T08:57:32.627Z,28.53
2018-09-05T09:00:00.836Z,28.33
2018-09-05T09:02:29.107Z,29.07
2018-09-05T09:04:57.309Z,29.40
2018-09-05T09:07:25.501Z,29.97
2018-09-05T09:09:53.716Z,26.97
2018-09-05T09:12:21.976Z,26.73
2018-09-05T09:14:50.191Z,26.83
2018-09-05T09:17:18.390Z,25.97
2018-09-05T09:19:46.632Z,27.30
2018-09-05T09:22:14.862Z,28.27
2018-09-05T09:24:43.083Z,27.57
2018-09-05T09:27:11.303Z,25.93
2018-09-05T09:29:39.496Z,23.97
2018-09-05T09:32:07.763Z,23.40
2018-09-05T09:34:36.007Z,22.37
2018-09-05T09:37:04.256Z,20.93
2018-09-05T09:39:32.474Z,22.23
2018-09-05T09:42:00.664Z,23.10
2018-09-05T09:44:28.900Z,20.00
2018-09-05T09:46:57.391Z,20.40
2018-09-05T09:49:25.598Z,18.73
2018-09-05T09:51:57.983Z,20.23
2018-09-05T09:54:26.187Z,17.17
2018-09-05T09:56:54.414Z,16.50
2018-09-05T09:59:22.655Z,19.10
2018-09-05T10:01:56.152Z,20.87
2018-09-05T10:04:29.764Z,20.87
2018-09-05T10:08:02.927Z,21.50
2018-09-05T10:10:36.601Z,21.07
2018-09-05T10:13:10.082Z,23.10
2018-09-05T10:15:43.768Z,22.90
2018-09-05T10:18:17.282Z,22.57
2018-09-05T10:20:45.498Z,21.90
2018-09-05T10:23:13.892Z,21.13
2018-09-05T10:25:42.138Z,20.37
2018-09-05T10:28:10.367Z,21.27
2018-09-05T10:30:38.602Z,21.37
2018-09-05T10:33:06.837Z,20.20
2018-09-05T10:35:35.037Z,20.67
2018-09-05T10:38:03.295Z,19.00
2018-09-05T10:40:31.505Z,21.20
2018-09-05T10:42:59.702Z,21.07
2018-09-05T10:45:27.928Z,21.80
2018-09-05T10:47:56.420Z,24.90
2018-09-05T10:50:24.639Z,23.93
2018-09-05T10:52:52.895Z,21.73
2018-09-05T10:55:21.081Z,22.73
2018-09-05T10:57:49.343Z,24.57
2018-09-05T11:00:17.572Z,23.67
2018-09-05T11:02:45.743Z,23.87
2018-09-05T11:05:13.946Z,22.80
2018-09-05T11:07:42.178Z,21.23
2018-09-05T11:10:10.427Z,18.70
2018-09-05T11:12:38.622Z,20.93
2018-09-05T11:15:06.949Z,21.13
2018-09-05T11:17:35.263Z,22.03
2018-09-05T11:20:03.537Z,24.83
2018-09-05T11:22:31.808Z,23.93
2018-09-05T11:25:06.231Z,23.10
2018-09-05T11:27:34.462Z,23.13
2018-09-05T11:30:02.605Z,26.77
2018-09-05T11:32:30.811Z,25.47
2018-09-05T11:34:59.120Z,25.73
2018-09-05T11:37:27.563Z,25.47
2018-09-05T11:39:55.774Z,22.73
2018-09-05T11:42:24.006Z,20.90
2018-09-05T11:44:52.330Z,18.73
2018-09-05T11:47:20.516Z,18.27
2018-09-05T11:49:48.899Z,19.57
2018-09-05T11:52:17.211Z,17.33
2018-09-05T11:54:45.553Z,21.60
2018-09-05T11:57:13.858Z,20.47
2018-09-05T11:59:42.132Z,19.90
2018-09-05T12:02:10.936Z,19.57
2018-09-05T12:04:39.296Z,21.20
2018-09-05T12:07:08.029Z,18.80
2018-09-05T12:09:36.236Z,19.93
2018-09-05T12:12:04.482Z,18.83
2018-09-05T12:14:32.683Z,19.10
2018-09-05T12:17:01.233Z,18.10
2018-09-05T12:19:29.419Z,20.03
2018-09-05T12:21:57.579Z,17.60
2018-09-05T12:24:25.773Z,17.23
2018-09-05T12:26:53.983Z,14.87
2018-09-05T12:29:22.252Z,19.07
2018-09-05T12:31:50.422Z,16.73
2018-09-05T12:34:18.611Z,16.67
2018-09-05T12:36:46.897Z,16.30
2018-09-05T12:39:15.298Z,16.33
2018-09-05T12:41:43.974Z,16.20
2018-09-05T12:44:12.691Z,14.77
2018-09-05T12:46:40.843Z,17.30
2018-09-05T12:49:09.192Z,15.10
2018-09-05T12:51:37.468Z,13.83
2018-09-05T12:54:06.240Z,14.37
2018-09-05T12:56:34.551Z,15.63
2018-09-05T12:59:02.792Z,15.37
2018-09-05T13:01:30.994Z,16.97
2018-09-05T13:03:59.316Z,14.30
2018-09-05T13:06:27.856Z,14.00
2018-09-05T13:08:56.034Z,13.13
2018-09-05T13:11:24.305Z,13.93
2018-09-05T13:13:52.469Z,13.53
2018-09-05T13:16:20.959Z,12.20
2018-09-05T13:18:49.171Z,12.47
2018-09-05T13:21:17.373Z,11.47
2018-09-05T13:23:45.781Z,13.10
2018-09-05T13:26:14.169Z,11.43
2018-09-05T13:28:42.817Z,10.90
2018-09-05T13:31:11.091Z,11.37
2018-09-05T13:33:39.303Z,10.30
2018-09-05T13:36:07.695Z,10.97
2018-09-05T13:38:35.878Z,9.93
2018-09-05T13:41:04.080Z,10.23
2018-09-05T13:43:32.341Z,10.03
2018-09-05T13:46:00.585Z,11.77
2018-09-05T13:48:28.814Z,9.80
2018-09-05T13:50:57.047Z,10.00
2018-09-05T13:53:25.239Z,10.20
2018-09-05T13:55:53.447Z,9.87
2018-09-05T13:58:21.627Z,9.67
2018-09-05T14:00:49.862Z,9.10
2018-09-05T14:03:18.226Z,9.03
2018-09-05T14:05:46.435Z,8.80
2018-09-05T14:08:14.683Z,9.87
2018-09-05T14:10:43.135Z,9.30
2018-09-05T14:13:11.324Z,9.00
2018-09-05T14:15:39.531Z,8.93
2018-09-05T14:18:07.760Z,9.27
2018-09-05T14:20:36.015Z,9.27
2018-09-05T14:23:04.216Z,9.30
2018-09-05T14:25:36.618Z,9.50
2018-09-05T14:28:05.410Z,9.63
2018-09-05T14:30:33.647Z,9.10
2018-09-05T14:33:01.902Z,8.63
2018-09-05T14:35:30.105Z,9.40
2018-09-05T14:37:58.343Z,9.07
2018-09-05T14:40:26.538Z,9.93
2018-09-05T14:42:54.774Z,9.23
2018-09-05T14:45:22.990Z,9.77
2018-09-05T14:47:51.217Z,9.90
2018-09-05T14:50:19.533Z,8.33
2018-09-05T14:52:47.971Z,9.23
2018-09-05T14:55:16.278Z,9.40
2018-09-05T14:57:44.766Z,9.40
2018-09-05T15:00:13.081Z,9.17
2018-09-05T15:02:41.377Z,8.83
2018-09-05T15:05:09.753Z,8.60
2018-09-05T15:07:37.991Z,8.90
2018-09-05T15:10:06.363Z,8.50
2018-09-05T15:12:34.583Z,9.30
2018-09-05T15:15:02.792Z,8.53
2018-09-05T15:17:31.069Z,8.60
2018-09-05T15:19:59.295Z,9.63
2018-09-05T15:22:27.515Z,9.40
2018-09-05T15:24:55.760Z,8.43
2018-09-05T15:27:24.031Z,8.40
2018-09-05T15:29:52.298Z,9.40
2018-09-05T15:32:20.628Z,9.03
2018-09-05T15:34:48.793Z,9.27
2018-09-05T15:37:17.081Z,9.37
2018-09-05T15:39:45.270Z,9.40
2018-09-05T15:42:13.467Z,9.97
2018-09-05T15:44:41.783Z,9.07
2018-09-05T15:47:10.106Z,8.47
2018-09-05T15:49:38.320Z,9.07
2018-09-05T15:52:06.622Z,8.80
2018-09-05T15:54:35.798Z,9.17
2018-09-05T15:57:04.004Z,8.87
2018-09-05T15:59:32.425Z,9.63
2018-09-05T16:02:01.259Z,10.10
2018-09-05T16:04:29.524Z,9.93
2018-09-05T16:06:57.796Z,9.47
2018-09-05T16:09:26.360Z,10.40
2018-09-05T16:11:54.844Z,11.30
2018-09-05T16:14:23.076Z,10.00
2018-09-05T16:16:51.405Z,10.70
2018-09-05T16:19:19.610Z,9.50
2018-09-05T16:21:47.853Z,10.50
2018-09-05T16:24:16.039Z,11.17
2018-09-05T16:26:44.223Z,9.93
2018-09-05T16:29:12.502Z,9.93
2018-09-05T16:31:40.774Z,9.70
2018-09-05T16:34:09.515Z,9.37
2018-09-05T16:36:37.721Z,8.73
2018-09-05T16:39:08.790Z,9.03
2018-09-05T16:41:37.420Z,9.10
2018-09-05T16:44:05.607Z,9.80
2018-09-05T16:46:33.818Z,9.50
2018-09-05T16:49:02.042Z,10.67
2018-09-05T16:51:30.387Z,10.13
2018-09-05T16:53:58.564Z,10.10
2018-09-05T16:56:26.851Z,10.43
2018-09-05T16:58:55.107Z,9.80
2018-09-05T17:01:23.372Z,10.87
2018-09-05T17:03:51.604Z,9.13
2018-09-05T17:06:19.806Z,10.03
2018-09-05T17:08:48.058Z,9.23
2018-09-05T17:11:16.366Z,9.23
2018-09-05T17:13:44.572Z,9.47
2018-09-05T17:16:12.820Z,9.83
2018-09-05T17:18:41.067Z,10.30
2018-09-05T17:21:09.331Z,9.70
2018-09-05T17:23:37.548Z,9.63
2018-09-05T17:26:06.166Z,9.77
2018-09-05T17:28:34.446Z,9.43
2018-09-05T17:31:02.627Z,10.10
2018-09-05T17:33:30.840Z,10.07
2018-09-05T17:35:59.031Z,10.20
2018-09-05T17:38:27.282Z,10.30
2018-09-05T17:40:55.472Z,9.53
2018-09-05T17:43:23.666Z,9.83
2018-09-05T17:45:51.894Z,10.07
2018-09-05T17:48:20.151Z,9.20
2018-09-05T17:50:49.044Z,10.60
2018-09-05T17:53:19.714Z,9.90
2018-09-05T17:55:48.195Z,10.43
2018-09-05T17:58:16.434Z,16.40
2018-09-05T18:00:44.726Z,15.57
2018-09-05T18:03:12.954Z,10.90
2018-09-05T18:05:41.130Z,12.00
2018-09-05T18:08:09.323Z,9.53
2018-09-05T18:10:37.566Z,11.13
2018-09-05T18:13:06.031Z,10.60
2018-09-05T18:15:34.289Z,11.30
2018-09-05T18:18:02.605Z,11.33
2018-09-05T18:20:30.806Z,11.20
2018-09-05T18:22:59.051Z,10.50
2018-09-05T18:25:27.344Z,10.03
2018-09-05T18:27:55.560Z,11.17
2018-09-05T18:30:23.907Z,10.43
2018-09-05T18:32:52.395Z,11.00
2018-09-05T18:35:20.581Z,10.97
2018-09-05T18:37:48.815Z,10.57
2018-09-05T18:40:16.991Z,10.70
2018-09-05T18:42:45.229Z,10.87
2018-09-05T18:45:13.451Z,11.67
2018-09-05T18:47:41.697Z,11.43
2018-09-05T18:50:10.095Z,11.43
2018-09-05T18:52:38.328Z,10.17
2018-09-05T18:55:07.436Z,10.70
2018-09-05T18:57:35.642Z,10.23
2018-09-05T19:00:03.878Z,10.00
2018-09-05T19:02:32.123Z,10.37
2018-09-05T19:05:00.343Z,9.87
2018-09-05T19:07:28.532Z,10.53
2018-09-05T19:09:56.749Z,9.60
2018-09-05T19:12:24.975Z,9.83
2018-09-05T19:14:53.244Z,9.40
2018-09-05T19:17:21.438Z,9.03
2018-09-05T19:19:49.655Z,9.43
2018-09-05T19:22:17.877Z,9.53
2018-09-05T19:24:46.076Z,9.63
2018-09-05T19:27:14.326Z,9.93
2018-09-05T19:29:42.555Z,9.83
2018-09-05T19:32:10.776Z,9.90
2018-09-05T19:34:39.077Z,9.63
2018-09-05T19:37:07.485Z,9.70
2018-09-05T19:39:35.696Z,10.03
2018-09-05T19:42:03.926Z,10.87
2018-09-05T19:44:32.156Z,10.20
2018-09-05T19:47:00.449Z,10.10
2018-09-05T19:49:28.700Z,11.10
2018-09-05T19:51:59.311Z,10.57
2018-09-05T19:54:27.533Z,10.53
2018-09-05T19:56:57.085Z,10.83
2018-09-05T19:59:26.172Z,10.53
2018-09-05T20:01:54.441Z,10.27
2018-09-05T20:04:22.880Z,10.33
2018-09-05T20:06:51.065Z,10.73
2018-09-05T20:09:19.458Z,11.33
2018-09-05T20:11:47.651Z,11.33
2018-09-05T20:14:15.863Z,11.77
2018-09-05T20:16:44.067Z,11.47
2018-09-05T20:19:12.354Z,11.50
2018-09-05T20:21:40.583Z,10.40
2018-09-05T20:24:08.988Z,10.73
2018-09-05T20:26:37.251Z,11.30
2018-09-05T20:29:05.967Z,11.67
2018-09-05T20:31:34.899Z,12.33
2018-09-05T20:34:03.156Z,11.90
2018-09-05T20:36:31.819Z,12.30
2018-09-05T20:39:00.012Z,11.40
2018-09-05T20:41:28.216Z,11.83
2018-09-05T20:43:56.516Z,10.63
2018-09-05T20:46:24.727Z,11.53
2018-09-05T20:48:52.988Z,12.10
2018-09-05T20:51:21.263Z,12.17
2018-09-05T20:53:49.466Z,11.53
2018-09-05T20:56:17.814Z,11.07
2018-09-05T20:58:46.236Z,11.10
2018-09-05T21:01:14.417Z,11.07
2018-09-05T21:03:42.660Z,10.70
2018-09-05T21:06:10.907Z,11.77
2018-09-05T21:08:39.123Z,12.47
2018-09-05T21:11:07.307Z,11.50
2018-09-05T21:13:35.707Z,11.23
2018-09-05T21:16:03.975Z,12.17
2018-09-05T21:18:33.222Z,11.63
2018-09-05T21:21:01.503Z,11.60
2018-09-05T21:23:31.555Z,12.33
2018-09-05T21:25:59.803Z,11.80
2018-09-05T21:28:28.145Z,11.47
2018-09-05T21:30:56.390Z,11.43
2018-09-05T21:33:25.120Z,11.23
2018-09-05T21:35:53.334Z,11.87
2018-09-05T21:38:21.587Z,11.90
2018-09-05T21:40:49.790Z,12.50
2018-09-05T21:43:18.046Z,13.30
2018-09-05T21:45:46.403Z,12.30
2018-09-05T21:48:14.706Z,12.80
2018-09-05T21:50:43.593Z,12.43
2018-09-05T21:53:11.831Z,13.43
2018-09-05T21:55:40.034Z,13.13
2018-09-05T21:58:08.274Z,15.00
2018-09-05T22:00:37.445Z,16.87
2018-09-05T22:03:05.834Z,17.03
2018-09-05T22:05:34.674Z,19.37
2018-09-05T22:08:02.900Z,23.20
2018-09-05T22:10:31.126Z,26.60
2018-09-05T22:12:59.355Z,24.93
2018-09-05T22:15:31.990Z,25.03
2018-09-05T22:18:00.200Z,21.70
2018-09-05T22:20:28.423Z,25.27
2018-09-05T22:22:56.647Z,22.73
2018-09-05T22:25:24.899Z,25.30
2018-09-05T22:27:53.086Z,26.67
2018-09-05T22:30:21.381Z,27.97
2018-09-05T22:32:49.575Z,24.37
2018-09-05T22:35:17.927Z,27.37
2018-09-05T22:37:46.156Z,24.00
2018-09-05T22:40:14.378Z,23.87
2018-09-05T22:42:52.559Z,26.17
2018-09-05T22:45:32.201Z,26.93
2018-09-05T22:48:26.688Z,27.20
2018-09-05T22:51:13.179Z,29.37
2018-09-05T22:54:11.731Z,24.43
2018-09-05T22:56:57.665Z,26.83
2018-09-05T22:59:36.977Z,25.07
2018-09-05T23:03:18.622Z,24.67
2018-09-05T23:05:57.836Z,29.77
2018-09-05T23:08:41.816Z,25.63
2018-09-05T23:11:21.690Z,24.47
2018-09-05T23:14:04.155Z,26.60
2018-09-05T23:16:43.658Z,28.83
2018-09-05T23:19:33.648Z,24.50
2018-09-05T23:22:01.887Z,26.27
2018-09-05T23:24:30.964Z,26.23
2018-09-05T23:26:59.175Z,23.47
2018-09-05T23:29:27.431Z,23.73
2018-09-05T23:31:55.686Z,24.37
2018-09-05T23:34:23.956Z,24.33
2018-09-05T23:36:52.160Z,23.43
2018-09-05T23:39:20.351Z,23.40
2018-09-05T23:41:48.567Z,23.87
2018-09-05T23:44:16.780Z,21.10
2018-09-05T23:46:45.095Z,20.90
2018-09-05T23:49:13.305Z,20.67
2018-09-05T23:51:41.511Z,25.17
2018-09-05T23:54:09.783Z,23.67
2018-09-05T23:56:38.125Z,22.43
2018-09-05T23:59:07.528Z,24.83
